• Join FlightAware (Why Join?)
  • Login
  • US Flag 
04:49PM EST


 

Airport Tracker/Info


-or-


 

Live Flight TrackerFlight Track Log ✈ CTL15 ✈ 20-May-2013 ✈ KMGY - KBKL

Flight Track Log - Related Links

Times and Time Zones

All times are in EDT time to prevent confusion due to time zone crossing. See the CTL15 flight status page for this flight to view local times or setup timezone preferences in your user account.

Time Position Orientation Groundspeed Altitude Reporting Facility
EDT Latitude Longitude Course Direction KTS MPH feet Rate Location/Type
07:42PM 39.5922 -84.1683 47° Northeast 156 180 2,800  Level Indianapolis Center
07:44PM 39.6331 -84.1114 47° Northeast 156 180 4,100 840 Climbing Indianapolis Center
07:45PM 39.6628 -84.0692 48° Northeast 153 176 4,900 720 Climbing Indianapolis Center
07:46PM 39.6922 -84.0292 46° Northeast 155 178 5,600 660 Climbing Indianapolis Center
07:46PM 39.7167 -83.9975 45° Northeast 155 178 6,200 540 Climbing Indianapolis Center
07:47PM 39.7231 -83.9903 41° Northeast 154 177 6,200 660 Level Indianapolis Center
07:47PM 39.7489 -83.9583 44° Northeast 156 180 6,900 660 Climbing Indianapolis Center
07:48PM 39.7550 -83.9497 47° Northeast 156 180 6,900 120 Level Indianapolis Center
07:49PM 39.7861 -83.9117 43° Northeast 176 203 7,100 60 Climbing Indianapolis Center
07:50PM 39.8253 -83.8650 42° Northeast 195 224 7,100 -60 Level Indianapolis Center
07:51PM 39.8664 -83.8186 41° Northeast 198 228 7,000 -120 Descending Indianapolis Center
07:51PM 39.8708 -83.8106 54° Northeast 194 223 7,000  Level Indianapolis Center
07:52PM 39.9125 -83.7619 42° Northeast 198 228 7,000  Level Indianapolis Center
07:53PM 39.9425 -83.7247 44° Northeast 197 227 7,000  Level Indianapolis Center
07:53PM 39.9594 -83.7039 43° Northeast 197 227 7,000 60 Level Indianapolis Center
07:54PM 39.9844 -83.6703 46° Northeast 199 229 7,100  Climbing Indianapolis Center
07:54PM 39.9986 -83.6519 45° Northeast 197 227 7,000 -120 Descending Indianapolis Center
07:55PM 40.0217 -83.6203 46° Northeast 195 224 7,000 60 Level Indianapolis Center
07:55PM 40.0375 -83.6003 44° Northeast 197 227 7,100  Climbing Indianapolis Center
07:55PM 40.0544 -83.5700 54° Northeast 197 227 7,000 -120 Descending Indianapolis Center
07:56PM 40.0733 -83.5444 46° Northeast 197 227 7,000  Level Indianapolis Center
07:57PM 40.1156 -83.4983 40° Northeast 196 226 7,000  Level Indianapolis Center
07:58PM 40.1572 -83.4500 42° Northeast 197 227 7,000  Level Indianapolis Center
07:59PM 40.1897 -83.4092 44° Northeast 198 228 7,000 60 Level Indianapolis Center
07:59PM 40.1978 -83.4006 39° Northeast 198 228 7,100 60 Climbing Indianapolis Center
08:00PM 40.2264 -83.3672 42° Northeast 194 223 7,100 -120 Level Indianapolis Center
08:00PM 40.2389 -83.3528 41° Northeast 197 227 7,000 -120 Descending Indianapolis Center
08:01PM 40.2808 -83.3036 42° Northeast 199 229 7,000  Level Indianapolis Center
08:02PM 40.3203 -83.2517 45° Northeast 199 229 7,000  Level Indianapolis Center
08:03PM 40.3611 -83.2017 43° Northeast 199 229 7,000  Level Indianapolis Center
08:04PM 40.4011 -83.1531 43° Northeast 196 226 7,100  Climbing Indianapolis Center
08:05PM 40.4417 -83.1047 42° Northeast 195 224 7,100  Level Indianapolis Center
08:06PM 40.4889 -83.0467 43° Northeast 197 227 7,100  Level Indianapolis Center
08:07PM 40.5258 -83.0036 42° Northeast 197 227 7,100 -60 Level Indianapolis Center
08:08PM 40.5658 -82.9533 44° Northeast 198 228 7,000 -60 Descending Indianapolis Center
08:09PM 40.6131 -82.8950 43° Northeast 198 228 7,000  Level Indianapolis Center
08:10PM 40.6536 -82.8456 43° Northeast 197 227 7,000  Level Indianapolis Center
08:11PM 40.6964 -82.7986 40° Northeast 198 228 7,000 -240 Level Indianapolis Center
08:12PM 40.7381 -82.7472 43° Northeast 203 234 6,600 -540 Descending Indianapolis Center
08:13PM 40.7847 -82.6939 41° Northeast 216 249 5,900 -720 Descending Indianapolis Center
08:14PM 40.8319 -82.6422 40° Northeast 218 251 5,200 -720 Descending Indianapolis Center